sensor_id;sensor_type;location;lat;lon;timestamp;pressure;altitude;pressure_sealevel;temperature;humidity
71126;BME280;58785;55.566;38.058;2023-04-28T00:02:16;99776.81;;;11.41;73.86
71126;BME280;58785;55.566;38.058;2023-04-28T00:04:42;99780.31;;;11.42;73.82
71126;BME280;58785;55.566;38.058;2023-04-28T00:07:08;99783.16;;;11.40;74.03
71126;BME280;58785;55.566;38.058;2023-04-28T00:09:33;99778.34;;;11.44;74.61
71126;BME280;58785;55.566;38.058;2023-04-28T00:11:59;99769.50;;;11.43;74.22
71126;BME280;58785;55.566;38.058;2023-04-28T00:14:26;99770.34;;;11.44;73.65
71126;BME280;58785;55.566;38.058;2023-04-28T00:16:51;99770.34;;;11.44;74.30
71126;BME280;58785;55.566;38.058;2023-04-28T00:19:17;99768.97;;;11.40;73.96
71126;BME280;58785;55.566;38.058;2023-04-28T00:21:42;99768.78;;;11.33;73.66
71126;BME280;58785;55.566;38.058;2023-04-28T00:24:08;99776.31;;;11.38;73.70
71126;BME280;58785;55.566;38.058;2023-04-28T00:26:34;99762.63;;;11.33;74.71
71126;BME280;58785;55.566;38.058;2023-04-28T00:28:59;99763.28;;;11.35;74.54
71126;BME280;58785;55.566;38.058;2023-04-28T00:31:25;99762.75;;;11.31;74.20
71126;BME280;58785;55.566;38.058;2023-04-28T00:33:51;99764.75;;;11.29;74.39
71126;BME280;58785;55.566;38.058;2023-04-28T00:36:16;99763.41;;;11.25;74.56
71126;BME280;58785;55.566;38.058;2023-04-28T00:38:42;99769.38;;;11.19;74.49
71126;BME280;58785;55.566;38.058;2023-04-28T00:41:10;99756.19;;;11.17;75.05
71126;BME280;58785;55.566;38.058;2023-04-28T00:43:46;99769.03;;;11.14;74.79
71126;BME280;58785;55.566;38.058;2023-04-28T00:46:19;99770.53;;;11.16;74.98
71126;BME280;58785;55.566;38.058;2023-04-28T00:48:46;99765.66;;;11.12;74.68
71126;BME280;58785;55.566;38.058;2023-04-28T00:51:12;99770.72;;;11.15;75.08
71126;BME280;58785;55.566;38.058;2023-04-28T00:53:38;99770.03;;;11.13;74.54
71126;BME280;58785;55.566;38.058;2023-04-28T00:56:04;99767.66;;;11.10;75.23
71126;BME280;58785;55.566;38.058;2023-04-28T00:58:31;99770.16;;;11.03;74.75
71126;BME280;58785;55.566;38.058;2023-04-28T01:01:05;99773.78;;;11.02;75.23
71126;BME280;58785;55.566;38.058;2023-04-28T01:03:35;99781.78;;;11.02;75.04
71126;BME280;58785;55.566;38.058;2023-04-28T01:06:06;99775.78;;;11.00;75.08
71126;BME280;58785;55.566;38.058;2023-04-28T01:08:34;99767.44;;;10.95;75.67
71126;BME280;58785;55.566;38.058;2023-04-28T01:11:00;99777.78;;;10.98;75.54
71126;BME280;58785;55.566;38.058;2023-04-28T01:13:27;99774.28;;;10.98;75.72
71126;BME280;58785;55.566;38.058;2023-04-28T01:15:54;99787.63;;;10.98;75.37
71126;BME280;58785;55.566;38.058;2023-04-28T01:18:19;99785.28;;;10.94;75.88
71126;BME280;58785;55.566;38.058;2023-04-28T01:20:45;99777.44;;;10.93;75.64
71126;BME280;58785;55.566;38.058;2023-04-28T01:23:15;99775.91;;;10.90;75.43
71126;BME280;58785;55.566;38.058;2023-04-28T01:25:41;99776.38;;;10.86;75.90
71126;BME280;58785;55.566;38.058;2023-04-28T01:28:08;99778.91;;;10.87;76.02
71126;BME280;58785;55.566;38.058;2023-04-28T01:30:35;99783.06;;;10.90;76.13
71126;BME280;58785;55.566;38.058;2023-04-28T01:33:02;99777.72;;;10.90;75.94
71126;BME280;58785;55.566;38.058;2023-04-28T01:35:27;99779.41;;;10.91;75.87
71126;BME280;58785;55.566;38.058;2023-04-28T01:37:53;99783.91;;;10.90;75.63
71126;BME280;58785;55.566;38.058;2023-04-28T01:40:19;99784.06;;;10.89;76.34
71126;BME280;58785;55.566;38.058;2023-04-28T01:42:44;99782.91;;;10.91;76.37
71126;BME280;58785;55.566;38.058;2023-04-28T01:45:10;99788.25;;;10.91;76.04
71126;BME280;58785;55.566;38.058;2023-04-28T01:47:36;99785.56;;;10.91;75.91
71126;BME280;58785;55.566;38.058;2023-04-28T01:50:02;99781.78;;;10.94;76.41
71126;BME280;58785;55.566;38.058;2023-04-28T01:52:30;99779.09;;;10.94;76.22
71126;BME280;58785;55.566;38.058;2023-04-28T01:54:55;99782.44;;;10.96;76.33
71126;BME280;58785;55.566;38.058;2023-04-28T01:57:21;99777.13;;;10.96;75.65
71126;BME280;58785;55.566;38.058;2023-04-28T01:59:47;99770.41;;;10.92;76.55
71126;BME280;58785;55.566;38.058;2023-04-28T02:02:13;99765.72;;;10.86;76.08
71126;BME280;58785;55.566;38.058;2023-04-28T02:04:38;99775.22;;;10.88;76.11
71126;BME280;58785;55.566;38.058;2023-04-28T02:07:05;99772.56;;;10.88;76.17
71126;BME280;58785;55.566;38.058;2023-04-28T02:09:32;99770.41;;;10.92;75.72
71126;BME280;58785;55.566;38.058;2023-04-28T02:11:58;99762.88;;;10.87;75.80
71126;BME280;58785;55.566;38.058;2023-04-28T02:14:28;99774.28;;;10.98;76.35
71126;BME280;58785;55.566;38.058;2023-04-28T02:16:54;99768.47;;;11.02;76.10
71126;BME280;58785;55.566;38.058;2023-04-28T02:19:19;99761.63;;;11.00;75.54
71126;BME280;58785;55.566;38.058;2023-04-28T02:21:45;99768.31;;;11.04;76.05
71126;BME280;58785;55.566;38.058;2023-04-28T02:24:11;99770.66;;;11.07;76.07
71126;BME280;58785;55.566;38.058;2023-04-28T02:26:36;99780.22;;;11.17;75.43
71126;BME280;58785;55.566;38.058;2023-04-28T02:29:02;99774.44;;;11.30;76.14
71126;BME280;58785;55.566;38.058;2023-04-28T02:31:32;99773.13;;;11.34;75.42
71126;BME280;58785;55.566;38.058;2023-04-28T02:33:58;99782.53;;;11.46;75.20
71126;BME280;58785;55.566;38.058;2023-04-28T02:36:23;99787.63;;;11.74;74.07
71126;BME280;58785;55.566;38.058;2023-04-28T02:38:49;99780.50;;;11.99;73.91
71126;BME280;58785;55.566;38.058;2023-04-28T02:41:15;99782.72;;;12.20;73.63
71126;BME280;58785;55.566;38.058;2023-04-28T02:43:40;99782.72;;;12.28;73.02
71126;BME280;58785;55.566;38.058;2023-04-28T02:46:07;99780.22;;;12.26;73.18
71126;BME280;58785;55.566;38.058;2023-04-28T02:48:33;99776.19;;;12.22;73.08
71126;BME280;58785;55.566;38.058;2023-04-28T02:51:03;99792.09;;;12.24;72.94
71126;BME280;58785;55.566;38.058;2023-04-28T02:53:29;99779.19;;;12.11;73.06
71126;BME280;58785;55.566;38.058;2023-04-28T02:55:55;99790.72;;;12.12;73.08
71126;BME280;58785;55.566;38.058;2023-04-28T02:58:21;99791.06;;;12.08;73.71
71126;BME280;58785;55.566;38.058;2023-04-28T03:00:47;99786.06;;;12.14;73.74
71126;BME280;58785;55.566;38.058;2023-04-28T03:03:13;99783.72;;;12.27;73.66
71126;BME280;58785;55.566;38.058;2023-04-28T03:05:38;99796.28;;;12.43;72.67
71126;BME280;58785;55.566;38.058;2023-04-28T03:08:04;99791.41;;;12.54;72.69
71126;BME280;58785;55.566;38.058;2023-04-28T03:10:30;99809.97;;;12.56;72.38
71126;BME280;58785;55.566;38.058;2023-04-28T03:12:56;99802.78;;;12.40;72.38
71126;BME280;58785;55.566;38.058;2023-04-28T03:15:21;99808.09;;;12.32;72.80
71126;BME280;58785;55.566;38.058;2023-04-28T03:17:47;99811.47;;;12.26;73.29
71126;BME280;58785;55.566;38.058;2023-04-28T03:20:13;99799.59;;;12.20;73.19
71126;BME280;58785;55.566;38.058;2023-04-28T03:22:39;99799.75;;;12.19;72.90
71126;BME280;58785;55.566;38.058;2023-04-28T03:25:04;99799.75;;;12.19;72.79
71126;BME280;58785;55.566;38.058;2023-04-28T03:27:32;99804.63;;;12.23;73.33
71126;BME280;58785;55.566;38.058;2023-04-28T03:29:57;99806.78;;;12.28;73.39
71126;BME280;58785;55.566;38.058;2023-04-28T03:32:23;99816.63;;;12.27;72.91
71126;BME280;58785;55.566;38.058;2023-04-28T03:34:49;99809.78;;;12.25;73.34
71126;BME280;58785;55.566;38.058;2023-04-28T03:37:14;99817.81;;;12.25;72.98
71126;BME280;58785;55.566;38.058;2023-04-28T03:39:40;99805.59;;;12.22;72.88
71126;BME280;58785;55.566;38.058;2023-04-28T03:42:05;99813.31;;;12.33;73.41
71126;BME280;58785;55.566;38.058;2023-04-28T03:44:31;99797.41;;;12.32;73.43
71126;BME280;58785;55.566;38.058;2023-04-28T03:46:57;99812.00;;;12.54;73.16
71126;BME280;58785;55.566;38.058;2023-04-28T03:49:22;99808.97;;;12.65;72.82
71126;BME280;58785;55.566;38.058;2023-04-28T03:51:49;99804.09;;;12.85;72.31
71126;BME280;58785;55.566;38.058;2023-04-28T03:54:15;99799.22;;;12.97;72.21
71126;BME280;58785;55.566;38.058;2023-04-28T03:56:41;99814.25;;;13.14;71.85
71126;BME280;58785;55.566;38.058;2023-04-28T03:59:08;99805.34;;;13.30;71.66
71126;BME280;58785;55.566;38.058;2023-04-28T04:01:36;99811.94;;;13.58;71.57
71126;BME280;58785;55.566;38.058;2023-04-28T04:04:03;99812.59;;;13.91;70.62
71126;BME280;58785;55.566;38.058;2023-04-28T04:06:29;99823.38;;;14.14;70.40
71126;BME280;58785;55.566;38.058;2023-04-28T04:08:55;99814.75;;;14.27;70.15
71126;BME280;58785;55.566;38.058;2023-04-28T04:11:21;99815.69;;;14.34;70.15
71126;BME280;58785;55.566;38.058;2023-04-28T04:13:46;99810.78;;;14.37;70.06
71126;BME280;58785;55.566;38.058;2023-04-28T04:16:12;99809.69;;;14.55;69.73
71126;BME280;58785;55.566;38.058;2023-04-28T04:18:40;99811.69;;;14.76;68.92
71126;BME280;58785;55.566;38.058;2023-04-28T04:21:06;99817.91;;;14.91;68.61
71126;BME280;58785;55.566;38.058;2023-04-28T04:23:32;99828.94;;;14.96;68.97
71126;BME280;58785;55.566;38.058;2023-04-28T04:25:58;99822.94;;;14.94;68.44
71126;BME280;58785;55.566;38.058;2023-04-28T04:28:23;99821.25;;;14.93;69.01
71126;BME280;58785;55.566;38.058;2023-04-28T04:30:49;99834.78;;;15.00;69.11
71126;BME280;58785;55.566;38.058;2023-04-28T04:33:15;99833.22;;;15.05;69.04
71126;BME280;58785;55.566;38.058;2023-04-28T04:35:41;99835.91;;;15.20;68.56
71126;BME280;58785;55.566;38.058;2023-04-28T04:38:06;99839.66;;;15.34;68.49
71126;BME280;58785;55.566;38.058;2023-04-28T04:40:32;99827.50;;;15.38;68.26
71126;BME280;58785;55.566;38.058;2023-04-28T04:42:58;99834.53;;;15.39;67.79
71126;BME280;58785;55.566;38.058;2023-04-28T04:45:24;99836.84;;;15.42;68.32
71126;BME280;58785;55.566;38.058;2023-04-28T04:47:49;99849.16;;;15.51;67.82
71126;BME280;58785;55.566;38.058;2023-04-28T04:50:16;99848.00;;;15.53;67.45
71126;BME280;58785;55.566;38.058;2023-04-28T04:52:42;99854.66;;;15.58;67.80
71126;BME280;58785;55.566;38.058;2023-04-28T04:55:07;99854.00;;;15.56;67.47
71126;BME280;58785;55.566;38.058;2023-04-28T04:57:35;99870.97;;;15.56;67.33
71126;BME280;58785;55.566;38.058;2023-04-28T05:00:02;99865.09;;;15.52;67.62
71126;BME280;58785;55.566;38.058;2023-04-28T05:02:33;99869.66;;;15.52;67.66
71126;BME280;58785;55.566;38.058;2023-04-28T05:04:59;99859.91;;;15.51;67.66
71126;BME280;58785;55.566;38.058;2023-04-28T05:07:25;99858.44;;;15.48;67.56
71126;BME280;58785;55.566;38.058;2023-04-28T05:09:51;99856.66;;;15.41;67.52
71126;BME280;58785;55.566;38.058;2023-04-28T05:12:16;99847.78;;;15.40;67.53
71126;BME280;58785;55.566;38.058;2023-04-28T05:14:42;99849.56;;;15.48;67.67
71126;BME280;58785;55.566;38.058;2023-04-28T05:17:08;99853.16;;;15.55;67.42
71126;BME280;58785;55.566;38.058;2023-04-28T05:19:33;99864.03;;;15.62;67.18
71126;BME280;58785;55.566;38.058;2023-04-28T05:21:59;99866.44;;;15.71;67.26
71126;BME280;58785;55.566;38.058;2023-04-28T05:24:26;99858.00;;;15.74;66.94
71126;BME280;58785;55.566;38.058;2023-04-28T05:26:52;99861.72;;;15.73;66.86
71126;BME280;58785;55.566;38.058;2023-04-28T05:29:19;99861.19;;;15.63;67.19
71126;BME280;58785;55.566;38.058;2023-04-28T05:31:46;99864.38;;;15.59;66.94
71126;BME280;58785;55.566;38.058;2023-04-28T05:34:11;99870.41;;;15.61;67.12
71126;BME280;58785;55.566;38.058;2023-04-28T05:36:37;99874.28;;;15.58;67.05
71126;BME280;58785;55.566;38.058;2023-04-28T05:39:03;99870.72;;;15.66;66.87
71126;BME280;58785;55.566;38.058;2023-04-28T05:41:28;99864.50;;;15.65;66.91
71126;BME280;58785;55.566;38.058;2023-04-28T05:43:54;99865.06;;;15.75;66.54
71126;BME280;58785;55.566;38.058;2023-04-28T05:46:20;99856.41;;;15.80;66.61
71126;BME280;58785;55.566;38.058;2023-04-28T05:48:45;99841.94;;;15.81;66.21
71126;BME280;58785;55.566;38.058;2023-04-28T05:51:11;99853.97;;;16.00;66.21
71126;BME280;58785;55.566;38.058;2023-04-28T05:53:37;99839.00;;;16.12;66.19
71126;BME280;58785;55.566;38.058;2023-04-28T05:56:03;99849.94;;;16.25;65.46
71126;BME280;58785;55.566;38.058;2023-04-28T05:58:28;99838.38;;;16.31;65.20
71126;BME280;58785;55.566;38.058;2023-04-28T06:00:55;99837.72;;;16.44;64.75
71126;BME280;58785;55.566;38.058;2023-04-28T06:03:21;99836.78;;;16.58;64.49
71126;BME280;58785;55.566;38.058;2023-04-28T06:05:47;99844.16;;;16.92;63.92
71126;BME280;58785;55.566;38.058;2023-04-28T06:08:13;99832.81;;;17.25;62.88
71126;BME280;58785;55.566;38.058;2023-04-28T06:10:38;99847.38;;;17.72;61.88
71126;BME280;58785;55.566;38.058;2023-04-28T06:13:04;99841.50;;;17.96;61.33
71126;BME280;58785;55.566;38.058;2023-04-28T06:15:32;99863.31;;;18.08;61.05
71126;BME280;58785;55.566;38.058;2023-04-28T06:17:57;99850.63;;;18.02;61.44
71126;BME280;58785;55.566;38.058;2023-04-28T06:20:24;99862.06;;;18.04;61.58
71126;BME280;58785;55.566;38.058;2023-04-28T06:22:49;99852.94;;;18.12;61.32
71126;BME280;58785;55.566;38.058;2023-04-28T06:25:15;99866.28;;;18.33;61.15
71126;BME280;58785;55.566;38.058;2023-04-28T06:27:41;99864.47;;;18.53;60.79
71126;BME280;58785;55.566;38.058;2023-04-28T06:30:07;99872.44;;;18.68;60.37
71126;BME280;58785;55.566;38.058;2023-04-28T06:32:33;99880.72;;;18.73;60.57
71126;BME280;58785;55.566;38.058;2023-04-28T06:34:59;99871.19;;;18.77;60.29
71126;BME280;58785;55.566;38.058;2023-04-28T06:37:25;99861.41;;;18.70;60.56
71126;BME280;58785;55.566;38.058;2023-04-28T06:39:51;99867.03;;;18.68;60.61
71126;BME280;58785;55.566;38.058;2023-04-28T06:42:16;99868.66;;;18.56;60.89
71126;BME280;58785;55.566;38.058;2023-04-28T06:44:43;99866.97;;;18.55;60.66
71126;BME280;58785;55.566;38.058;2023-04-28T06:47:10;99874.25;;;18.54;60.95
71126;BME280;58785;55.566;38.058;2023-04-28T06:49:35;99871.31;;;18.49;61.08
71126;BME280;58785;55.566;38.058;2023-04-28T06:52:01;99872.34;;;18.48;61.09
71126;BME280;58785;55.566;38.058;2023-04-28T06:54:27;99874.00;;;18.43;61.30
71126;BME280;58785;55.566;38.058;2023-04-28T06:56:52;99873.56;;;18.32;61.38
71126;BME280;58785;55.566;38.058;2023-04-28T06:59:18;99869.16;;;18.18;61.31
71126;BME280;58785;55.566;38.058;2023-04-28T07:01:44;99867.91;;;18.14;61.68
71126;BME280;58785;55.566;38.058;2023-04-28T07:04:09;99871.84;;;18.12;61.85
71126;BME280;58785;55.566;38.058;2023-04-28T07:06:35;99871.03;;;18.18;61.92
71126;BME280;58785;55.566;38.058;2023-04-28T07:09:01;99871.66;;;18.20;61.93
71126;BME280;58785;55.566;38.058;2023-04-28T07:11:27;99878.31;;;18.17;62.12
71126;BME280;58785;55.566;38.058;2023-04-28T07:13:53;99876.19;;;18.13;62.43
71126;BME280;58785;55.566;38.058;2023-04-28T07:16:18;99878.06;;;18.05;63.24
71126;BME280;58785;55.566;38.058;2023-04-28T07:18:45;99870.72;;;17.93;63.67
71126;BME280;58785;55.566;38.058;2023-04-28T07:21:11;99882.34;;;17.93;64.50
71126;BME280;58785;55.566;38.058;2023-04-28T07:23:37;99868.84;;;17.87;64.62
71126;BME280;58785;55.566;38.058;2023-04-28T07:26:04;99886.31;;;17.97;64.70
71126;BME280;58785;55.566;38.058;2023-04-28T07:28:30;99874.69;;;18.03;64.57
71126;BME280;58785;55.566;38.058;2023-04-28T07:30:56;99871.84;;;18.12;64.54
71126;BME280;58785;55.566;38.058;2023-04-28T07:33:22;99881.22;;;18.22;64.28
71126;BME280;58785;55.566;38.058;2023-04-28T07:35:48;99881.22;;;18.22;64.63
71126;BME280;58785;55.566;38.058;2023-04-28T07:38:14;99881.22;;;18.16;64.71
71126;BME280;58785;55.566;38.058;2023-04-28T07:40:42;99882.63;;;18.05;64.90
71126;BME280;58785;55.566;38.058;2023-04-28T07:43:08;99869.72;;;17.94;65.00
71126;BME280;58785;55.566;38.058;2023-04-28T07:45:37;99877.31;;;17.84;64.94
71126;BME280;58785;55.566;38.058;2023-04-28T07:48:03;99870.56;;;17.66;65.24
71126;BME280;58785;55.566;38.058;2023-04-28T07:50:29;99877.00;;;17.65;65.48
71126;BME280;58785;55.566;38.058;2023-04-28T07:52:55;99882.28;;;17.52;66.00
71126;BME280;58785;55.566;38.058;2023-04-28T07:55:22;99885.19;;;17.44;66.00
71126;BME280;58785;55.566;38.058;2023-04-28T07:57:48;99882.03;;;17.40;66.24
71126;BME280;58785;55.566;38.058;2023-04-28T08:00:14;99876.19;;;17.37;66.24
71126;BME280;58785;55.566;38.058;2023-04-28T08:02:40;99876.78;;;17.32;66.46
71126;BME280;58785;55.566;38.058;2023-04-28T08:05:06;99878.69;;;17.38;66.94
71126;BME280;58785;55.566;38.058;2023-04-28T08:07:33;99872.13;;;17.47;66.52
71126;BME280;58785;55.566;38.058;2023-04-28T08:09:59;99865.34;;;17.58;66.35
71126;BME280;58785;55.566;38.058;2023-04-28T08:12:26;99869.34;;;17.69;65.95
71126;BME280;58785;55.566;38.058;2023-04-28T08:14:51;99869.22;;;17.77;65.80
71126;BME280;58785;55.566;38.058;2023-04-28T08:17:17;99865.69;;;17.83;65.54
71126;BME280;58785;55.566;38.058;2023-04-28T08:19:43;99868.03;;;17.93;65.58
71126;BME280;58785;55.566;38.058;2023-04-28T08:22:11;99876.97;;;18.00;65.29
71126;BME280;58785;55.566;38.058;2023-04-28T08:24:38;99869.13;;;18.05;65.24
71126;BME280;58785;55.566;38.058;2023-04-28T08:27:03;99864.34;;;18.07;65.35
71126;BME280;58785;55.566;38.058;2023-04-28T08:29:30;99850.63;;;18.02;65.36
71126;BME280;58785;55.566;38.058;2023-04-28T08:31:56;99867.72;;;18.16;65.10
71126;BME280;58785;55.566;38.058;2023-04-28T08:34:22;99857.38;;;18.26;64.60
71126;BME280;58785;55.566;38.058;2023-04-28T08:36:48;99859.47;;;18.50;64.41
71126;BME280;58785;55.566;38.058;2023-04-28T08:39:13;99858.09;;;18.74;63.92
71126;BME280;58785;55.566;38.058;2023-04-28T08:41:40;99859.34;;;18.91;63.73
71126;BME280;58785;55.566;38.058;2023-04-28T08:44:08;99856.22;;;19.08;62.91
71126;BME280;58785;55.566;38.058;2023-04-28T08:46:34;99855.19;;;19.15;62.64
71126;BME280;58785;55.566;38.058;2023-04-28T08:49:01;99862.66;;;19.13;62.94
71126;BME280;58785;55.566;38.058;2023-04-28T08:51:40;99854.56;;;18.93;63.33
71126;BME280;58785;55.566;38.058;2023-04-28T08:54:08;99842.66;;;18.61;63.70
71126;BME280;58785;55.566;38.058;2023-04-28T08:56:35;99857.78;;;18.43;64.39
71126;BME280;58785;55.566;38.058;2023-04-28T08:59:02;99858.38;;;18.18;64.60
71126;BME280;58785;55.566;38.058;2023-04-28T09:01:32;99849.38;;;17.98;65.07
71126;BME280;58785;55.566;38.058;2023-04-28T09:04:02;99855.34;;;17.87;65.32
71126;BME280;58785;55.566;38.058;2023-04-28T09:06:35;99854.06;;;17.83;65.29
71126;BME280;58785;55.566;38.058;2023-04-28T09:12:05;99855.41;;;18.00;65.34
71126;BME280;58785;55.566;38.058;2023-04-28T09:14:33;99863.53;;;18.13;65.22
71126;BME280;58785;55.566;38.058;2023-04-28T09:17:00;99852.97;;;18.18;65.29
71126;BME280;58785;55.566;38.058;2023-04-28T09:19:33;99865.84;;;18.23;65.45
71126;BME280;58785;55.566;38.058;2023-04-28T09:22:01;99853.38;;;18.15;65.69
71126;BME280;58785;55.566;38.058;2023-04-28T09:24:32;99855.44;;;18.06;66.08
71126;BME280;58785;55.566;38.058;2023-04-28T09:27:03;99864.97;;;18.09;66.53
71126;BME280;58785;55.566;38.058;2023-04-28T09:29:30;99860.00;;;18.06;66.73
71126;BME280;58785;55.566;38.058;2023-04-28T09:32:12;99864.34;;;18.14;67.06
71126;BME280;58785;55.566;38.058;2023-04-28T09:34:48;99868.16;;;18.32;67.48
71126;BME280;58785;55.566;38.058;2023-04-28T09:37:16;99860.94;;;18.46;67.00
71126;BME280;58785;55.566;38.058;2023-04-28T09:39:47;99875.50;;;18.58;66.95
71126;BME280;58785;55.566;38.058;2023-04-28T09:42:35;99862.81;;;18.59;66.79
71126;BME280;58785;55.566;38.058;2023-04-28T09:45:04;99861.84;;;18.80;66.51
71126;BME280;58785;55.566;38.058;2023-04-28T09:47:37;99866.41;;;18.99;66.31
71126;BME280;58785;55.566;38.058;2023-04-28T09:50:05;99867.66;;;19.03;66.33
71126;BME280;58785;55.566;38.058;2023-04-28T09:52:34;99874.31;;;19.01;66.67
71126;BME280;58785;55.566;38.058;2023-04-28T09:55:04;99870.78;;;18.93;66.92
71126;BME280;58785;55.566;38.058;2023-04-28T09:57:33;99868.28;;;18.99;67.01
71126;BME280;58785;55.566;38.058;2023-04-28T10:00:00;99880.13;;;19.17;66.33
71126;BME280;58785;55.566;38.058;2023-04-28T10:02:37;99882.00;;;19.30;66.24
71126;BME280;58785;55.566;38.058;2023-04-28T10:05:03;99883.03;;;19.29;66.47
71126;BME280;58785;55.566;38.058;2023-04-28T10:07:31;99886.56;;;19.30;66.09
71126;BME280;58785;55.566;38.058;2023-04-28T10:10:00;99878.88;;;19.20;66.44
71126;BME280;58785;55.566;38.058;2023-04-28T10:12:26;99877.44;;;19.17;66.54
71126;BME280;58785;55.566;38.058;2023-04-28T10:14:52;99879.91;;;19.12;66.49
71126;BME280;58785;55.566;38.058;2023-04-28T10:17:20;99881.78;;;19.18;66.78
71126;BME280;58785;55.566;38.058;2023-04-28T10:19:48;99886.13;;;19.33;66.49
71126;BME280;58785;55.566;38.058;2023-04-28T10:27:44;99880.28;;;19.49;65.73
71126;BME280;58785;55.566;38.058;2023-04-28T10:30:21;99877.16;;;19.52;65.64
71126;BME280;58785;55.566;38.058;2023-04-28T10:35:46;99889.25;;;19.63;65.12
71126;BME280;58785;55.566;38.058;2023-04-28T10:43:12;99893.84;;;19.22;65.47
71126;BME280;58785;55.566;38.058;2023-04-28T10:48:59;99890.72;;;18.92;65.93
71126;BME280;58785;55.566;38.058;2023-04-28T10:56:08;99896.75;;;18.68;66.95
71126;BME280;58785;55.566;38.058;2023-04-28T10:58:36;99894.19;;;18.60;67.15
71126;BME280;58785;55.566;38.058;2023-04-28T11:06:35;99901.13;;;18.21;68.15
71126;BME280;58785;55.566;38.058;2023-04-28T11:16:51;99894.38;;;17.63;69.58
71126;BME280;58785;55.566;38.058;2023-04-28T11:19:35;99900.59;;;17.57;70.30
71126;BME280;58785;55.566;38.058;2023-04-28T11:22:20;99903.44;;;17.48;70.22
71126;BME280;58785;55.566;38.058;2023-04-28T11:24:58;99895.97;;;17.44;70.49
71126;BME280;58785;55.566;38.058;2023-04-28T11:27:25;99896.78;;;17.44;70.57
71126;BME280;58785;55.566;38.058;2023-04-28T11:29:51;99901.34;;;17.44;70.66
71126;BME280;58785;55.566;38.058;2023-04-28T11:32:25;99897.56;;;17.38;71.08
71126;BME280;58785;55.566;38.058;2023-04-28T11:34:51;99894.44;;;17.35;71.42
71126;BME280;58785;55.566;38.058;2023-04-28T11:37:17;99892.91;;;17.26;71.62
71126;BME280;58785;55.566;38.058;2023-04-28T11:39:45;99899.13;;;17.26;71.92
71126;BME280;58785;55.566;38.058;2023-04-28T11:42:11;99893.28;;;17.22;72.17
71126;BME280;58785;55.566;38.058;2023-04-28T11:44:37;99897.00;;;17.21;72.25
71126;BME280;58785;55.566;38.058;2023-04-28T11:47:04;99898.50;;;17.24;72.40
71126;BME280;58785;55.566;38.058;2023-04-28T11:49:45;99892.91;;;17.26;72.63
71126;BME280;58785;55.566;38.058;2023-04-28T11:52:12;99888.38;;;17.33;72.72
71126;BME280;58785;55.566;38.058;2023-04-28T11:54:39;99884.91;;;17.39;72.55
71126;BME280;58785;55.566;38.058;2023-04-28T11:57:16;99874.97;;;17.39;72.42
71126;BME280;58785;55.566;38.058;2023-04-28T11:59:42;99874.56;;;17.42;72.50
71126;BME280;58785;55.566;38.058;2023-04-28T12:02:07;99873.09;;;17.40;72.64
71126;BME280;58785;55.566;38.058;2023-04-28T12:04:38;99867.72;;;17.40;72.61
71126;BME280;58785;55.566;38.058;2023-04-28T12:09:31;99877.31;;;17.49;72.49
71126;BME280;58785;55.566;38.058;2023-04-28T12:11:59;99858.00;;;17.45;72.76
71126;BME280;58785;55.566;38.058;2023-04-28T12:14:26;99860.50;;;17.47;72.47
71126;BME280;58785;55.566;38.058;2023-04-28T12:16:52;99851.59;;;17.46;72.61
71126;BME280;58785;55.566;38.058;2023-04-28T12:19:18;99854.78;;;17.63;72.13
71126;BME280;58785;55.566;38.058;2023-04-28T12:22:02;99845.34;;;17.80;72.17
71126;BME280;58785;55.566;38.058;2023-04-28T12:24:28;99845.69;;;18.05;71.31
71126;BME280;58785;55.566;38.058;2023-04-28T12:26:53;99845.50;;;18.20;70.57
71126;BME280;58785;55.566;38.058;2023-04-28T12:29:36;99844.66;;;18.20;70.40
71126;BME280;58785;55.566;38.058;2023-04-28T12:32:03;99856.31;;;18.27;70.26
71126;BME280;58785;55.566;38.058;2023-04-28T12:34:29;99858.78;;;18.22;70.05
71126;BME280;58785;55.566;38.058;2023-04-28T12:36:56;99855.84;;;18.10;70.24
71126;BME280;58785;55.566;38.058;2023-04-28T12:39:21;99837.72;;;17.91;70.60
71126;BME280;58785;55.566;38.058;2023-04-28T12:41:47;99854.91;;;17.83;70.82
71126;BME280;58785;55.566;38.058;2023-04-28T12:44:13;99848.22;;;17.72;71.13
71126;BME280;58785;55.566;38.058;2023-04-28T12:46:40;99845.47;;;17.66;71.29
71126;BME280;58785;55.566;38.058;2023-04-28T12:49:06;99848.97;;;17.60;71.24
71126;BME280;58785;55.566;38.058;2023-04-28T12:51:32;99846.03;;;17.55;71.20
71126;BME280;58785;55.566;38.058;2023-04-28T12:54:00;99856.63;;;17.56;71.51
71126;BME280;58785;55.566;38.058;2023-04-28T12:56:25;99846.66;;;17.57;71.16
71126;BME280;58785;55.566;38.058;2023-04-28T12:58:52;99858.91;;;17.59;71.80
71126;BME280;58785;55.566;38.058;2023-04-28T13:01:17;99854.56;;;17.58;71.34
71126;BME280;58785;55.566;38.058;2023-04-28T13:03:43;99848.75;;;17.55;71.24
71126;BME280;58785;55.566;38.058;2023-04-28T13:06:09;99852.47;;;17.60;71.34
71126;BME280;58785;55.566;38.058;2023-04-28T13:08:36;99848.97;;;17.60;71.01
71126;BME280;58785;55.566;38.058;2023-04-28T13:11:01;99843.13;;;17.56;71.13
71126;BME280;58785;55.566;38.058;2023-04-28T13:13:30;99839.84;;;17.61;71.19
71126;BME280;58785;55.566;38.058;2023-04-28T13:15:55;99844.44;;;17.67;70.94
71126;BME280;58785;55.566;38.058;2023-04-28T13:18:22;99843.03;;;17.71;70.59
71126;BME280;58785;55.566;38.058;2023-04-28T13:20:49;99837.25;;;17.74;70.52
71126;BME280;58785;55.566;38.058;2023-04-28T13:23:15;99846.44;;;17.86;70.45
71126;BME280;58785;55.566;38.058;2023-04-28T13:25:40;99839.00;;;17.95;70.06
71126;BME280;58785;55.566;38.058;2023-04-28T13:28:06;99842.78;;;18.07;69.78
71126;BME280;58785;55.566;38.058;2023-04-28T13:30:32;99836.75;;;18.12;69.69